Ilyas Efendiyev — 9HES8 — position and weather

sailwx.info

Track history (hours):
 
Tides and Currents Weather Stations Pressure Air Temp Water Temp Dewpoint Dewpoint Depression Visibility Wind Speed Wind Dir Waves Ship Positions

Ilyas Efendiyev

Last reported at 2014-Dec-09 11:12 UTC. Time now 2014-Dec-22 19:32 UTC.
Position N 37°55' E 023°01'.
Warning: this ship's position is 13 days out of date.

Length 140 m; draft 4.6 m.

Type: Cargo ship. MMSI: 215901000.

Date/timePositionNaut miles runAvg speedWind from/ knotsBaromVisibWave heightAir tempDewpointWater temp
2014-Dec-09 11:12N 37°55' E 023°01'4 5.4
2014-Dec-09 10:29N 37°53' E 023°06'9 8.4
2014-Dec-09 09:22N 37°53' E 023°18'7 8.5
2014-Dec-09 08:33N 37°51' E 023°26'5 4.7
2014-Dec-09 07:27N 37°54' E 023°32'0 0.0
2014-Dec-09 06:33N 37°54' E 023°32'0 0.0
2014-Dec-09 05:30N 37°54' E 023°32'0 0.0
2014-Dec-09 04:31N 37°54' E 023°32'0 0.0
2014-Dec-09 03:31N 37°54' E 023°32'0 0.0
2014-Dec-09 02:32N 37°54' E 023°32'0 0.0
2014-Dec-09 01:32N 37°54' E 023°32'0 0.0
2014-Dec-09 00:31N 37°54' E 023°32'0 0.0
2014-Dec-08 23:29N 37°54' E 023°32'0 0.0
2014-Dec-08 22:32N 37°54' E 023°32'0 0.0
2014-Dec-08 21:32N 37°54' E 023°32'0 0.0
2014-Dec-08 20:31N 37°54' E 023°32'0 0.0
2014-Dec-08 19:32N 37°54' E 023°32'1 1.0
2014-Dec-08 18:33N 37°53' E 023°33'0 0.0
2014-Dec-08 17:32N 37°53' E 023°33'0 0.0
2014-Dec-08 16:32N 37°53' E 023°33'0 0.0
2014-Dec-08 15:29N 37°53' E 023°33'0 0.1
2014-Dec-08 14:33N 37°53' E 023°33'6 6.3
2014-Dec-08 13:33N 37°49' E 023°40'9 8.6
2014-Dec-08 12:33N 37°42' E 023°45'25 7.3
2014-Dec-08 09:09N 37°45' E 024°15'289 6.8
2014-Dec-06 14:25N 40°57' E 028°56'2 2.5
2014-Dec-06 13:32N 40°59' E 028°56'0 0.0
2014-Dec-06 11:32N 40°59' E 028°56'0 0.0
2014-Dec-06 08:15N 40°59' E 028°56'0 0.0
2014-Dec-06 03:26N 40°59' E 028°56'0 0.0
2014-Dec-06 02:28N 40°59' E 028°56'0 0.1
2014-Dec-06 00:29N 40°59' E 028°56'0 0.0
2014-Dec-05 22:25N 40°59' E 028°57'0 0.0
2014-Dec-05 21:30N 40°59' E 028°57'0 0.0
2014-Dec-05 20:33N 40°59' E 028°57'0 0.0
2014-Dec-05 19:26N 40°59' E 028°57'0 0.0
2014-Dec-05 18:21N 40°59' E 028°57'0 0.0
2014-Dec-05 17:27N 40°59' E 028°57'0 0.0
2014-Dec-05 16:18N 40°59' E 028°57'0 0.0
2014-Dec-05 15:33N 40°59' E 028°57'0 0.1
2014-Dec-05 14:31N 40°59' E 028°57'0 0.0
2014-Dec-05 05:30N 40°59' E 028°56'0 0.0
2014-Dec-05 04:33N 40°59' E 028°56'0 0.0
2014-Dec-05 03:30N 40°59' E 028°56'0 0.0
2014-Dec-04 23:33N 40°59' E 028°57'1 0.6
2014-Dec-04 22:33N 40°59' E 028°57'  
2014-Dec-02 05:26N 46°35' E 031°18'7 7.9
2014-Dec-02 04:31N 46°36' E 031°29'7 6.9
2014-Dec-02 03:32N 46°36' E 031°39'7 7.5
2014-Dec-02 02:33N 46°36' E 031°49'7 6.9
2014-Dec-02 01:33N 46°41' E 031°56'7 7.1
2014-Dec-02 00:33N 46°48' E 031°53'8 8.0
2014-Dec-01 23:33N 46°54' E 032°01'3 3.1
2014-Dec-01 22:30N 46°56' E 031°57'0 0.0
2014-Dec-01 21:33N 46°56' E 031°57'0 0.0
2014-Dec-01 20:31N 46°56' E 031°57'0 0.0
2014-Dec-01 19:30N 46°56' E 031°57'0 0.0
2014-Dec-01 18:30N 46°56' E 031°57'0 0.0
2014-Dec-01 17:33N 46°56' E 031°57'0 0.0
2014-Dec-01 16:31N 46°56' E 031°57'0 0.0
2014-Dec-01 12:33N 46°56' E 031°57'0 0.0
2014-Dec-01 11:29N 46°56' E 031°57'0 0.0
2014-Dec-01 10:32N 46°56' E 031°57'0 0.0
2014-Dec-01 09:32N 46°56' E 031°57'0 0.0
2014-Dec-01 08:32N 46°56' E 031°57'0 0.0
2014-Dec-01 07:31N 46°56' E 031°57'0 0.0
2014-Dec-01 06:31N 46°56' E 031°57'0 0.0
2014-Dec-01 05:31N 46°56' E 031°57'0 0.0
2014-Dec-01 04:33N 46°56' E 031°57'0 0.0
2014-Dec-01 03:33N 46°56' E 031°57'0 0.0
2014-Dec-01 02:31N 46°56' E 031°57'0 0.0
2014-Dec-01 01:31N 46°56' E 031°57'0 0.0
2014-Dec-01 00:31N 46°56' E 031°57'0 0.0
2014-Nov-30 23:32N 46°56' E 031°57'0 0.0
2014-Nov-30 22:26N 46°56' E 031°57'0 0.0
2014-Nov-30 21:32N 46°56' E 031°57'0 0.0
2014-Nov-30 20:31N 46°56' E 031°57'0 0.0
2014-Nov-30 19:32N 46°56' E 031°57'0 0.0
2014-Nov-30 18:31N 46°56' E 031°57'0 0.0
2014-Nov-30 17:31N 46°56' E 031°57'0 0.0
2014-Nov-30 16:31N 46°56' E 031°57'0 0.0
2014-Nov-30 15:31N 46°56' E 031°57'0 0.0
2014-Nov-30 14:31N 46°56' E 031°57'0 0.0
2014-Nov-30 13:31N 46°56' E 031°57'0 0.0
2014-Nov-30 12:31N 46°56' E 031°57'0 0.0
2014-Nov-30 11:31N 46°56' E 031°57'0 0.0
2014-Nov-30 10:33N 46°56' E 031°57'0 0.0
2014-Nov-30 09:33N 46°56' E 031°57'0 0.0
2014-Nov-30 08:33N 46°56' E 031°57'0 0.0
2014-Nov-30 07:31N 46°56' E 031°57'0 0.0
2014-Nov-30 06:31N 46°56' E 031°57'0 0.0
2014-Nov-30 05:31N 46°56' E 031°57'0 0.0
2014-Nov-30 04:31N 46°56' E 031°57'0 0.0
2014-Nov-30 03:31N 46°56' E 031°57'0 0.0
2014-Nov-30 02:26N 46°56' E 031°57'0 0.0
2014-Nov-30 01:32N 46°56' E 031°57'0 0.0
2014-Nov-30 00:29N 46°56' E 031°57'0 0.0
2014-Nov-29 23:32N 46°56' E 031°57'0 0.0
2014-Nov-29 22:31N 46°56' E 031°57'0 0.0
2014-Nov-29 21:32N 46°56' E 031°57'0 0.0
2014-Nov-29 20:29N 46°56' E 031°57'0 0.0
2014-Nov-29 19:33N 46°56' E 031°57'0 0.0
2014-Nov-29 18:33N 46°56' E 031°57'0 0.0
2014-Nov-29 17:33N 46°56' E 031°57'0 0.0
2014-Nov-29 16:31N 46°56' E 031°57'0 0.0
2014-Nov-29 15:32N 46°56' E 031°57'0 0.0
2014-Nov-29 14:33N 46°56' E 031°57'3 3.2
2014-Nov-29 13:33N 46°55' E 032°01'8 7.9
2014-Nov-29 12:34N 46°49' E 031°54'7 7.2
2014-Nov-29 11:33N 46°42' E 031°56'  
Track history (hours):
 
Tides and Currents Weather Stations Pressure Air Temp Water Temp Dewpoint Dewpoint Depression Visibility Wind Speed Wind Dir Waves Ship Positions

Ilyas Efendiyev

Last reported at 2014-Dec-09 11:12 UTC. Time now 2014-Dec-22 19:32 UTC.
Position N 37°55' E 023°01'.
Warning: this ship's position is 13 days out of date.

Length 140 m; draft 4.6 m.

Type: Cargo ship. MMSI: 215901000.

Date/timePositionNaut miles runAvg speedWind from/ knotsBaromVisibWave heightAir tempDewpointWater temp
2014-Dec-09 11:12N 37°55' E 023°01'4 5.4
2014-Dec-09 10:29N 37°53' E 023°06'9 8.4
2014-Dec-09 09:22N 37°53' E 023°18'7 8.5
2014-Dec-09 08:33N 37°51' E 023°26'5 4.7
2014-Dec-09 07:27N 37°54' E 023°32'0 0.0
2014-Dec-09 06:33N 37°54' E 023°32'0 0.0
2014-Dec-09 05:30N 37°54' E 023°32'0 0.0
2014-Dec-09 04:31N 37°54' E 023°32'0 0.0
2014-Dec-09 03:31N 37°54' E 023°32'0 0.0
2014-Dec-09 02:32N 37°54' E 023°32'0 0.0
2014-Dec-09 01:32N 37°54' E 023°32'0 0.0
2014-Dec-09 00:31N 37°54' E 023°32'0 0.0
2014-Dec-08 23:29N 37°54' E 023°32'0 0.0
2014-Dec-08 22:32N 37°54' E 023°32'0 0.0
2014-Dec-08 21:32N 37°54' E 023°32'0 0.0
2014-Dec-08 20:31N 37°54' E 023°32'0 0.0
2014-Dec-08 19:32N 37°54' E 023°32'1 1.0
2014-Dec-08 18:33N 37°53' E 023°33'0 0.0
2014-Dec-08 17:32N 37°53' E 023°33'0 0.0
2014-Dec-08 16:32N 37°53' E 023°33'0 0.0
2014-Dec-08 15:29N 37°53' E 023°33'0 0.1
2014-Dec-08 14:33N 37°53' E 023°33'6 6.3
2014-Dec-08 13:33N 37°49' E 023°40'9 8.6
2014-Dec-08 12:33N 37°42' E 023°45'25 7.3
2014-Dec-08 09:09N 37°45' E 024°15'289 6.8
2014-Dec-06 14:25N 40°57' E 028°56'2 2.5
2014-Dec-06 13:32N 40°59' E 028°56'0 0.0
2014-Dec-06 11:32N 40°59' E 028°56'0 0.0
2014-Dec-06 08:15N 40°59' E 028°56'0 0.0
2014-Dec-06 03:26N 40°59' E 028°56'0 0.0
2014-Dec-06 02:28N 40°59' E 028°56'0 0.1
2014-Dec-06 00:29N 40°59' E 028°56'0 0.0
2014-Dec-05 22:25N 40°59' E 028°57'0 0.0
2014-Dec-05 21:30N 40°59' E 028°57'0 0.0
2014-Dec-05 20:33N 40°59' E 028°57'0 0.0
2014-Dec-05 19:26N 40°59' E 028°57'0 0.0
2014-Dec-05 18:21N 40°59' E 028°57'0 0.0
2014-Dec-05 17:27N 40°59' E 028°57'0 0.0
2014-Dec-05 16:18N 40°59' E 028°57'0 0.0
2014-Dec-05 15:33N 40°59' E 028°57'0 0.1
2014-Dec-05 14:31N 40°59' E 028°57'0 0.0
2014-Dec-05 05:30N 40°59' E 028°56'0 0.0
2014-Dec-05 04:33N 40°59' E 028°56'0 0.0
2014-Dec-05 03:30N 40°59' E 028°56'0 0.0
2014-Dec-04 23:33N 40°59' E 028°57'1 0.6
2014-Dec-04 22:33N 40°59' E 028°57'  
2014-Dec-02 05:26N 46°35' E 031°18'7 7.9
2014-Dec-02 04:31N 46°36' E 031°29'7 6.9
2014-Dec-02 03:32N 46°36' E 031°39'7 7.5
2014-Dec-02 02:33N 46°36' E 031°49'7 6.9
2014-Dec-02 01:33N 46°41' E 031°56'7 7.1
2014-Dec-02 00:33N 46°48' E 031°53'8 8.0
2014-Dec-01 23:33N 46°54' E 032°01'3 3.1
2014-Dec-01 22:30N 46°56' E 031°57'0 0.0
2014-Dec-01 21:33N 46°56' E 031°57'0 0.0
2014-Dec-01 20:31N 46°56' E 031°57'0 0.0
2014-Dec-01 19:30N 46°56' E 031°57'0 0.0
2014-Dec-01 18:30N 46°56' E 031°57'0 0.0
2014-Dec-01 17:33N 46°56' E 031°57'0 0.0
2014-Dec-01 16:31N 46°56' E 031°57'0 0.0
2014-Dec-01 12:33N 46°56' E 031°57'0 0.0
2014-Dec-01 11:29N 46°56' E 031°57'0 0.0
2014-Dec-01 10:32N 46°56' E 031°57'0 0.0
2014-Dec-01 09:32N 46°56' E 031°57'0 0.0
2014-Dec-01 08:32N 46°56' E 031°57'0 0.0
2014-Dec-01 07:31N 46°56' E 031°57'0 0.0
2014-Dec-01 06:31N 46°56' E 031°57'0 0.0
2014-Dec-01 05:31N 46°56' E 031°57'0 0.0
2014-Dec-01 04:33N 46°56' E 031°57'0 0.0
2014-Dec-01 03:33N 46°56' E 031°57'0 0.0
2014-Dec-01 02:31N 46°56' E 031°57'0 0.0
2014-Dec-01 01:31N 46°56' E 031°57'0 0.0
2014-Dec-01 00:31N 46°56' E 031°57'0 0.0
2014-Nov-30 23:32N 46°56' E 031°57'0 0.0
2014-Nov-30 22:26N 46°56' E 031°57'0 0.0
2014-Nov-30 21:32N 46°56' E 031°57'0 0.0
2014-Nov-30 20:31N 46°56' E 031°57'0 0.0
2014-Nov-30 19:32N 46°56' E 031°57'0 0.0
2014-Nov-30 18:31N 46°56' E 031°57'0 0.0
2014-Nov-30 17:31N 46°56' E 031°57'0 0.0
2014-Nov-30 16:31N 46°56' E 031°57'0 0.0
2014-Nov-30 15:31N 46°56' E 031°57'0 0.0
2014-Nov-30 14:31N 46°56' E 031°57'0 0.0
2014-Nov-30 13:31N 46°56' E 031°57'0 0.0
2014-Nov-30 12:31N 46°56' E 031°57'0 0.0
2014-Nov-30 11:31N 46°56' E 031°57'0 0.0
2014-Nov-30 10:33N 46°56' E 031°57'0 0.0
2014-Nov-30 09:33N 46°56' E 031°57'0 0.0
2014-Nov-30 08:33N 46°56' E 031°57'0 0.0
2014-Nov-30 07:31N 46°56' E 031°57'0 0.0
2014-Nov-30 06:31N 46°56' E 031°57'0 0.0
2014-Nov-30 05:31N 46°56' E 031°57'0 0.0
2014-Nov-30 04:31N 46°56' E 031°57'0 0.0
2014-Nov-30 03:31N 46°56' E 031°57'0 0.0
2014-Nov-30 02:26N 46°56' E 031°57'0 0.0
2014-Nov-30 01:32N 46°56' E 031°57'0 0.0
2014-Nov-30 00:29N 46°56' E 031°57'0 0.0
2014-Nov-29 23:32N 46°56' E 031°57'0 0.0
2014-Nov-29 22:31N 46°56' E 031°57'0 0.0
2014-Nov-29 21:32N 46°56' E 031°57'0 0.0
2014-Nov-29 20:29N 46°56' E 031°57'0 0.0
2014-Nov-29 19:33N 46°56' E 031°57'0 0.0
2014-Nov-29 18:33N 46°56' E 031°57'0 0.0
2014-Nov-29 17:33N 46°56' E 031°57'0 0.0
2014-Nov-29 16:31N 46°56' E 031°57'0 0.0
2014-Nov-29 15:32N 46°56' E 031°57'0 0.0
2014-Nov-29 14:33N 46°56' E 031°57'3 3.2
2014-Nov-29 13:33N 46°55' E 032°01'8 7.9
2014-Nov-29 12:34N 46°49' E 031°54'7 7.2
2014-Nov-29 11:33N 46°42' E 031°56'  

Dump ship's entire track history